Kenai Fjords National Park, AK

3:52 AM AKDT on July 25, 2016 (GMT -0800)
coastal | | Change Station

Elev 90 ft 60.57 °N, 151.29 °W | Updated 4 minutes ago

Light Rain
Light Rain
54.5 °F
Feels Like 54.5 °F
N
0.0
Wind Variable Wind from ENE

Today
High -- | Low -- °F
--% Chance of Precip.
Yesterday
High -- | Low -- °F
Precip. -- in
Pressure 29.70 in
Visibility 10.0 miles
Clouds Scattered Clouds 600 ft
Scattered Clouds 1900 ft
Overcast 2800 ft
Dew Point 54 °F
Humidity 98%
Rainfall 0.07 in
Snow Depth Not available.
5:26 AM 10:54 PM
Waning Gibbous, 66% visible
SPECI PAEN 251104Z AUTO 04003KT 10SM -RA SCT006 SCT019 OVC028 12/12 A2970 RMK AO2 P0000 T01220117 TSNO
Pressure 29.70 in
Visibility 10.0 miles
Clouds Scattered Clouds 600 ft
Scattered Clouds 1900 ft
Overcast 2800 ft
Dew Point 54 °F
Humidity 98%
Rainfall 0.07 in
Snow Depth Not available.
5:26 AM 10:54 PM
Waning Gibbous, 66% visible
SPECI PAEN 251104Z AUTO 04003KT 10SM -RA SCT006 SCT019 OVC028 12/12 A2970 RMK AO2 P0000 T01220117 TSNO

10-Day Weather Forecast

Almanac

Astronomy

Jul. 25, 2016 Rise Set
Actual Time
Civil Twilight
Nautical Twilight
Astronomical Twilight
Moon
Length of Visible Light
Length of Day
Tomorrow will be .
, % of the Moon is Illuminated

Today's Extremes

State Highs State Lows

Community

WunderPhotos

Upload Photos

1,927,293 photos uploaded!

WunderBlog® & News

Nearby

Air Quality

  Air Quality AQ Index Pollutant
Not available.

Snow Depth

Station Depth Elevation

Earthquake Activity

City Distance Mag. Time & Date
Minimum magnitude displayed is 2.5.

Coastal Water Temperatures

Place Temperature

Stations

Nearby Weather Stations

Station Location Temp. Windchill Dew Point Humidity Wind Precip. Elev Updated Type
                   

Watches & Warnings

There are currently no watches in effect.